Time;durP1;ratioP1;P1;durP2;ratioP2;P2;SDS_P1;SDS_P2;PMS_P1;PMS_P2;Temp;Humidity;BMP_temperature;BMP_pressure;BME280_temperature;BME280_humidity;BME280_pressure;Samples;Min_cycle;Max_cycle;Signal;HPM_P1;HPM_P2
2022/05/26 00:01:04;;;;;;;2.75;2.20;;;12.70;99.90;;;;;;5016660;28;20034;-32
2022/05/26 00:03:31;;;;;;;2.28;2.10;;;12.70;99.90;;;;;;5011178;28;20045;-33
2022/05/26 00:05:57;;;;;;;4.93;2.10;;;12.60;99.90;;;;;;5018245;28;20083;-32
2022/05/26 00:08:23;;;;;;;2.03;1.80;;;12.60;99.90;;;;;;5016089;28;20041;-33
2022/05/26 00:10:49;;;;;;;2.97;1.90;;;12.50;99.90;;;;;;5016123;28;20485;-34
2022/05/26 00:13:14;;;;;;;2.40;1.88;;;12.50;99.90;;;;;;5017732;28;20034;-33
2022/05/26 00:15:46;;;;;;;1.92;1.70;;;12.30;99.90;;;;;;5017111;28;20426;-32
2022/05/26 00:18:12;;;;;;;1.73;1.42;;;12.10;99.90;;;;;;5016744;28;20529;-33
2022/05/26 00:20:37;;;;;;;2.63;2.10;;;11.80;99.90;;;;;;5021047;28;20029;-33
2022/05/26 00:23:03;;;;;;;2.40;1.85;;;11.70;99.90;;;;;;5017711;28;20087;-32
2022/05/26 00:25:32;;;;;;;2.13;1.90;;;11.80;99.90;;;;;;5016656;28;20061;-34
2022/05/26 00:27:58;;;;;;;1.98;1.88;;;12.00;99.90;;;;;;5021383;28;20041;-33
2022/05/26 00:30:24;;;;;;;2.15;2.00;;;12.00;99.90;;;;;;5020883;28;20044;-34
2022/05/26 00:32:50;;;;;;;1.80;1.70;;;12.10;99.90;;;;;;5021063;28;20034;-33
2022/05/26 00:35:16;;;;;;;3.65;2.20;;;12.10;99.90;;;;;;5023668;28;20029;-34
2022/05/26 00:37:43;;;;;;;5.03;1.90;;;12.10;99.90;;;;;;5022586;28;20029;-33
2022/05/26 00:40:11;;;;;;;2.10;2.00;;;12.10;99.90;;;;;;5010989;28;20022;-33
2022/05/26 00:42:36;;;;;;;1.65;1.55;;;12.20;99.90;;;;;;5010649;28;20038;-32
2022/05/26 00:45:03;;;;;;;2.25;1.98;;;12.20;99.90;;;;;;5016224;28;20034;-33
2022/05/26 00:47:34;;;;;;;1.80;1.70;;;12.10;99.90;;;;;;5024312;28;20029;-33
2022/05/26 00:50:31;;;;;;;5.65;2.00;;;12.10;99.90;;;;;;5018318;28;20672;-33
2022/05/26 00:52:59;;;;;;;4.43;2.10;;;12.00;99.90;;;;;;5020686;28;20125;-33
2022/05/26 00:55:28;;;;;;;;;;;12.10;99.90;;;;;;5021070;28;20032;-33
2022/05/26 00:58:01;;;;;;;2.05;1.60;;;12.20;99.90;;;;;;5022873;28;19920;-33
2022/05/26 01:00:30;;;;;;;1.90;1.80;;;12.20;99.90;;;;;;5017675;28;20478;-33
2022/05/26 01:03:01;;;;;;;4.43;2.17;;;12.00;99.90;;;;;;5018592;28;20048;-33
2022/05/26 01:05:31;;;;;;;2.00;1.90;;;11.90;99.90;;;;;;5016272;28;20513;-33
2022/05/26 01:07:59;;;;;;;1.70;1.60;;;11.80;99.90;;;;;;5015663;28;20033;-33
2022/05/26 01:10:25;;;;;;;1.65;1.55;;;11.80;99.90;;;;;;5018614;28;20033;-33
2022/05/26 01:12:51;;;;;;;2.75;1.58;;;11.70;99.90;;;;;;5020166;28;20096;-33
2022/05/26 01:15:20;;;;;;;1.75;1.65;;;11.80;99.90;;;;;;5018737;28;20036;-33
2022/05/26 01:17:49;;;;;;;1.77;1.67;;;11.60;99.90;;;;;;5021343;28;20033;-33
2022/05/26 01:20:33;;;;;;;;;;;11.60;99.90;;;;;;5017871;28;20442;-33
2022/05/26 01:23:11;;;;;;;2.53;2.03;;;11.60;99.90;;;;;;5019544;28;20354;-32
2022/05/26 01:25:36;;;;;;;1.97;1.80;;;11.60;99.90;;;;;;5019870;28;20045;-33
2022/05/26 01:28:02;;;;;;;5.60;1.88;;;11.70;99.90;;;;;;5009068;28;20641;-33
2022/05/26 01:30:47;;;;;;;1.63;1.35;;;11.70;99.90;;;;;;5012482;28;20040;-32
2022/05/26 01:33:37;;;;;;;3.22;1.63;;;11.70;99.90;;;;;;5015918;28;20417;-32
2022/05/26 01:36:37;;;;;;;1.58;1.48;;;11.70;99.90;;;;;;5039346;28;20029;-31
2022/05/26 01:39:18;;;;;;;1.90;1.73;;;11.70;99.90;;;;;;4988628;28;20139;-32
2022/05/26 01:42:20;;;;;;;1.75;1.60;;;11.80;99.90;;;;;;5014429;28;20125;-32
2022/05/26 01:45:17;;;;;;;2.33;1.90;;;11.70;99.90;;;;;;5012048;28;20034;-32
2022/05/26 01:48:27;;;;;;;1.73;1.63;;;11.50;99.90;;;;;;5013362;28;20033;-32
2022/05/26 01:51:04;;;;;;;2.35;1.77;;;11.50;99.90;;;;;;4996601;28;20722;-31
2022/05/26 01:53:45;;;;;;;5.97;1.73;;;11.40;99.90;;;;;;5011766;28;20045;-33
2022/05/26 01:56:24;;;;;;;1.92;1.73;;;11.30;99.90;;;;;;5012353;28;20575;-33
2022/05/26 01:58:59;;;;;;;3.30;1.80;;;11.10;99.90;;;;;;5010183;28;20384;-32
2022/05/26 02:01:31;;;;;;;1.95;1.80;;;10.70;99.90;;;;;;5020331;28;20041;-33
2022/05/26 02:04:02;;;;;;;2.00;1.80;;;10.60;99.90;;;;;;5018070;28;20025;-32
2022/05/26 02:06:34;;;;;;;2.25;1.88;;;10.40;99.90;;;;;;5021428;28;20030;-32
2022/05/26 02:09:03;;;;;;;2.35;1.63;;;10.50;99.90;;;;;;5021557;28;20551;-32
2022/05/26 02:11:33;;;;;;;2.65;1.85;;;10.50;99.90;;;;;;5021839;28;22465;-32
2022/05/26 02:14:07;;;;;;;2.00;1.90;;;10.30;99.90;;;;;;5017029;28;20021;-33
2022/05/26 02:17:03;;;;;;;3.42;2.08;;;10.20;99.90;;;;;;5017152;28;20026;-32
2022/05/26 02:19:34;;;;;;;2.15;1.77;;;10.20;99.90;;;;;;5016535;28;20500;-32
2022/05/26 02:22:03;;;;;;;3.17;2.03;;;10.10;99.90;;;;;;5014322;28;20032;-33
2022/05/26 02:24:34;;;;;;;;;;;10.20;99.90;;;;;;5016277;28;20384;-33
2022/05/26 02:26:59;;;;;;;1.55;1.52;;;10.10;99.90;;;;;;5026848;28;20394;-33
2022/05/26 02:32:11;;;;;;;3.45;2.15;;;10.20;99.90;;;;;;5010270;28;20048;-33
2022/05/26 02:34:40;;;;;;;2.00;1.90;;;10.30;99.90;;;;;;5013279;28;20037;-32
2022/05/26 02:37:07;;;;;;;;;;;10.30;99.90;;;;;;5014607;28;20032;-32
2022/05/26 02:39:32;;;;;;;1.67;1.58;;;10.40;99.90;;;;;;5009801;28;20388;-33
2022/05/26 02:41:59;;;;;;;1.67;1.55;;;10.40;99.90;;;;;;5027107;28;20025;-33
2022/05/26 02:44:29;;;;;;;1.90;1.80;;;10.30;99.90;;;;;;5008654;28;21182;-32
2022/05/26 02:47:20;;;;;;;1.90;1.80;;;10.20;99.90;;;;;;5016513;28;20658;-32
2022/05/26 02:50:18;;;;;;;3.97;1.90;;;10.20;99.90;;;;;;5008629;28;20395;-33
2022/05/26 02:53:06;;;;;;;1.70;1.60;;;10.20;99.90;;;;;;4990019;28;20048;-33
2022/05/26 02:55:54;;;;;;;2.30;2.10;;;10.10;99.90;;;;;;5008643;28;20091;-32
2022/05/26 02:58:52;;;;;;;2.10;1.90;;;10.00;99.90;;;;;;5012663;28;20037;-32
2022/05/26 03:01:33;;;;;;;3.92;2.15;;;10.10;99.90;;;;;;5014300;28;20049;-32
2022/05/26 03:04:12;;;;;;;1.63;1.55;;;10.10;99.90;;;;;;5010106;28;20545;-32
2022/05/26 03:06:45;;;;;;;2.10;1.80;;;10.00;99.90;;;;;;5018082;28;20474;-33
2022/05/26 03:09:11;;;;;;;1.83;1.73;;;10.10;99.90;;;;;;5014443;28;20037;-32
2022/05/26 03:11:48;;;;;;;2.65;1.75;;;10.10;99.90;;;;;;5014532;28;20086;-33
2022/05/26 03:14:15;;;;;;;5.32;1.88;;;10.10;99.90;;;;;;5016710;28;20029;-33
2022/05/26 03:16:41;;;;;;;3.05;2.28;;;10.00;99.90;;;;;;5012019;28;20033;-32
2022/05/26 03:19:08;;;;;;;1.95;1.70;;;10.00;99.90;;;;;;5018541;28;20911;-32
2022/05/26 03:21:34;;;;;;;1.92;1.80;;;10.00;99.90;;;;;;5020174;28;20025;-32
2022/05/26 03:23:59;;;;;;;5.90;2.58;;;10.00;99.90;;;;;;5019783;28;20032;-32
2022/05/26 03:26:25;;;;;;;1.80;1.70;;;10.00;99.90;;;;;;5014674;28;20030;-32
2022/05/26 03:28:51;;;;;;;2.58;2.10;;;10.00;99.90;;;;;;5021233;28;20054;-32
2022/05/26 03:31:16;;;;;;;11.90;3.00;;;10.00;99.90;;;;;;5014407;28;20487;-32
2022/05/26 03:42:00;;;;;;;3.50;1.85;;;9.90;99.90;;;;;;4985343;28;20041;-33
2022/05/26 03:44:28;;;;;;;1.83;1.73;;;9.90;99.90;;;;;;5016763;28;20037;-33
2022/05/26 03:46:53;;;;;;;2.20;2.00;;;10.10;99.90;;;;;;5008949;28;20505;-33
2022/05/26 03:49:20;;;;;;;3.42;1.70;;;10.10;99.90;;;;;;5007917;28;20108;-32
2022/05/26 03:51:45;;;;;;;1.80;1.70;;;9.90;99.90;;;;;;5013288;28;20061;-33
2022/05/26 03:54:11;;;;;;;1.85;1.75;;;9.70;99.90;;;;;;5035333;28;20124;-34
2022/05/26 03:56:37;;;;;;;2.85;2.10;;;9.80;99.90;;;;;;5009176;28;20145;-32
2022/05/26 03:59:03;;;;;;;4.78;2.33;;;9.90;99.90;;;;;;5008830;28;20055;-33
2022/05/26 04:01:29;;;;;;;1.77;1.67;;;10.10;99.90;;;;;;5007176;28;20046;-33
2022/05/26 04:03:57;;;;;;;2.70;1.95;;;10.20;99.90;;;;;;5009933;28;20049;-32
2022/05/26 04:06:23;;;;;;;2.55;1.90;;;10.30;99.90;;;;;;5005135;28;20116;-33
2022/05/26 04:08:49;;;;;;;2.15;1.90;;;10.40;99.90;;;;;;5015949;28;20383;-32
2022/05/26 04:11:15;;;;;;;2.22;2.03;;;10.50;99.90;;;;;;5013179;28;20477;-33
2022/05/26 04:13:42;;;;;;;1.70;1.60;;;10.60;99.90;;;;;;5013279;28;20107;-32
2022/05/26 04:16:07;;;;;;;2.08;1.98;;;10.60;99.90;;;;;;5007870;28;20453;-33
2022/05/26 04:18:33;;;;;;;2.45;2.28;;;10.60;99.90;;;;;;5010192;28;20029;-32
2022/05/26 04:21:04;;;;;;;1.83;1.73;;;10.70;99.90;;;;;;5011097;28;20044;-32
2022/05/26 04:23:30;;;;;;;3.13;2.17;;;10.70;99.90;;;;;;5017406;28;20033;-32
2022/05/26 04:25:55;;;;;;;2.22;2.00;;;10.70;99.90;;;;;;5016300;28;20042;-33
2022/05/26 04:28:21;;;;;;;2.38;1.88;;;10.80;99.90;;;;;;5015383;28;20460;-33
2022/05/26 04:30:47;;;;;;;2.25;2.05;;;10.80;99.90;;;;;;5020917;28;20038;-32
2022/05/26 04:33:13;;;;;;;2.17;2.08;;;10.80;99.90;;;;;;5013481;28;20538;-33
2022/05/26 04:35:38;;;;;;;2.25;2.03;;;10.90;99.90;;;;;;5014443;28;20034;-33
2022/05/26 04:38:04;;;;;;;2.15;1.95;;;10.90;99.90;;;;;;5015841;28;20379;-33
2022/05/26 04:40:30;;;;;;;1.83;1.73;;;10.90;99.90;;;;;;5013473;28;20032;-32
2022/05/26 04:42:55;;;;;;;2.55;2.35;;;11.00;99.90;;;;;;5019709;28;20399;-31
2022/05/26 04:45:21;;;;;;;2.30;2.10;;;11.00;99.90;;;;;;5011894;28;20434;-32
2022/05/26 04:47:47;;;;;;;3.13;2.08;;;11.00;99.90;;;;;;5014196;28;20068;-31
2022/05/26 04:50:13;;;;;;;6.75;2.17;;;11.00;99.90;;;;;;5019057;28;20029;-32
2022/05/26 04:52:38;;;;;;;2.38;2.17;;;11.00;99.90;;;;;;5016187;28;20590;-32
2022/05/26 04:55:05;;;;;;;2.20;2.10;;;11.10;99.90;;;;;;5015803;28;20025;-32
2022/05/26 04:57:31;;;;;;;2.17;1.98;;;11.20;99.90;;;;;;5012178;28;20382;-32
2022/05/26 04:59:57;;;;;;;2.50;2.20;;;11.20;99.90;;;;;;5013545;28;20269;-32
2022/05/26 05:02:24;;;;;;;2.40;2.20;;;11.30;99.90;;;;;;5012803;28;20152;-31
2022/05/26 05:04:50;;;;;;;3.42;2.03;;;11.30;99.90;;;;;;5013056;28;20037;-32
2022/05/26 05:07:18;;;;;;;2.70;1.90;;;11.40;99.90;;;;;;5004307;28;20064;-32
2022/05/26 05:09:45;;;;;;;2.97;2.17;;;11.50;99.90;;;;;;5036809;22;20057;-74
2022/05/26 05:12:17;;;;;;;3.42;2.58;;;11.60;99.90;;;;;;5020634;28;20037;-75
2022/05/26 05:14:48;;;;;;;3.20;1.80;;;11.60;99.90;;;;;;5022865;28;20030;-74
2022/05/26 05:17:16;;;;;;;2.70;2.50;;;11.60;99.90;;;;;;5011343;28;20029;-75
2022/05/26 05:19:42;;;;;;;2.88;2.58;;;11.60;99.90;;;;;;5026789;28;20025;-76
2022/05/26 05:22:16;;;;;;;2.65;2.13;;;11.70;99.90;;;;;;5026610;28;20737;-75
2022/05/26 05:24:47;;;;;;;2.38;2.17;;;11.80;99.90;;;;;;5027679;28;20064;-75
2022/05/26 05:27:49;;;;;;;3.67;2.50;;;11.80;99.90;;;;;;5027655;28;20102;-75
2022/05/26 05:30:24;;;;;;;2.58;2.30;;;11.90;99.90;;;;;;5027341;28;20122;-75
2022/05/26 05:32:56;;;;;;;2.35;2.17;;;12.00;99.90;;;;;;5026522;28;20128;-75
2022/05/26 05:35:32;;;;;;;3.50;2.50;;;12.10;99.90;;;;;;5009076;28;20042;-75
2022/05/26 05:37:58;;;;;;;3.00;2.22;;;12.10;99.90;;;;;;5026533;28;20029;-75
2022/05/26 05:40:25;;;;;;;2.83;2.53;;;12.20;99.90;;;;;;5028351;28;20064;-75
2022/05/26 05:42:50;;;;;;;2.80;2.60;;;12.30;99.90;;;;;;5026905;28;20034;-75
2022/05/26 05:45:16;;;;;;;2.67;2.47;;;12.30;99.90;;;;;;5024068;28;20044;-75
2022/05/26 05:47:42;;;;;;;3.33;3.03;;;12.40;99.90;;;;;;5026097;28;20064;-75
2022/05/26 05:50:08;;;;;;;2.85;2.63;;;12.50;99.90;;;;;;5028872;28;21276;-75
2022/05/26 05:52:36;;;;;;;2.45;2.25;;;12.70;99.90;;;;;;5027205;28;20041;-75
2022/05/26 05:55:04;;;;;;;2.63;2.42;;;12.90;99.90;;;;;;5026890;28;20099;-75
2022/05/26 05:57:30;;;;;;;3.53;2.85;;;13.10;99.90;;;;;;5006187;28;20035;-75
2022/05/26 05:59:56;;;;;;;2.42;2.22;;;13.30;99.90;;;;;;5026817;28;20070;-75
2022/05/26 06:02:21;;;;;;;3.53;2.70;;;13.40;99.90;;;;;;5022931;28;20861;-75
2022/05/26 06:04:47;;;;;;;3.60;2.55;;;13.50;99.90;;;;;;5026160;28;20048;-75
2022/05/26 06:07:18;;;;;;;2.20;2.00;;;13.80;99.90;;;;;;5025145;28;20084;-75
2022/05/26 06:09:45;;;;;;;2.60;2.40;;;13.90;99.90;;;;;;5023600;28;20049;-74
2022/05/26 06:12:12;;;;;;;2.50;2.03;;;14.00;99.90;;;;;;5025594;28;20416;-74
2022/05/26 06:14:39;;;;;;;2.28;2.05;;;14.30;99.90;;;;;;5020209;28;20044;-74
2022/05/26 06:17:07;;;;;;;2.67;2.20;;;14.50;99.90;;;;;;5021659;28;20070;-74
2022/05/26 06:19:33;;;;;;;5.07;2.22;;;14.70;99.90;;;;;;5007374;28;20029;-75
2022/05/26 06:22:04;;;;;;;3.25;2.30;;;14.80;99.90;;;;;;5022998;28;20076;-75
2022/05/26 06:24:30;;;;;;;2.58;1.83;;;15.00;99.90;;;;;;5023426;28;20029;-74
2022/05/26 06:26:55;;;;;;;2.58;2.38;;;15.10;99.90;;;;;;5024847;28;20040;-75
2022/05/26 06:37:37;;;;;;;1.48;1.27;;;15.50;99.90;;;;;;5023071;28;20048;-76
2022/05/26 06:40:03;;;;;;;1.90;1.60;;;15.60;99.90;;;;;;5024250;28;20190;-76
2022/05/26 06:42:29;;;;;;;1.67;1.58;;;15.60;99.90;;;;;;5026426;28;20029;-76
2022/05/26 06:44:55;;;;;;;3.00;1.42;;;15.80;99.90;;;;;;5023182;28;20116;-76
2022/05/26 06:47:22;;;;;;;1.83;1.40;;;15.70;99.90;;;;;;5025055;28;20168;-76
2022/05/26 06:49:48;;;;;;;1.63;1.35;;;15.80;99.90;;;;;;5024521;28;20030;-76
2022/05/26 06:52:16;;;;;;;1.27;1.20;;;16.20;99.90;;;;;;5026911;28;20065;-75
2022/05/26 06:54:45;;;;;;;1.55;1.40;;;16.20;99.90;;;;;;5022726;28;20041;-75
2022/05/26 06:57:13;;;;;;;2.55;1.25;;;16.20;99.90;;;;;;5021558;28;20069;-76
2022/05/26 06:59:38;;;;;;;;;;;16.10;99.90;;;;;;5024277;28;20033;-76
2022/05/26 07:02:06;;;;;;;1.75;1.50;;;16.10;99.90;;;;;;5020000;28;20623;-76
2022/05/26 07:04:32;;;;;;;1.60;1.50;;;16.30;99.90;;;;;;5018170;28;20556;-76
2022/05/26 07:06:58;;;;;;;2.05;1.58;;;16.50;99.90;;;;;;5023961;28;20033;-76
2022/05/26 07:09:24;;;;;;;1.60;1.30;;;16.60;99.90;;;;;;5025614;28;20137;-76
2022/05/26 07:11:50;;;;;;;1.58;1.10;;;16.40;97.00;;;;;;5026199;28;20040;-76
2022/05/26 07:14:16;;;;;;;1.40;1.25;;;16.50;99.90;;;;;;5023023;28;20497;-76
2022/05/26 07:16:44;;;;;;;3.53;1.70;;;16.50;99.20;;;;;;5023091;28;20036;-75
2022/05/26 07:19:09;;;;;;;1.83;1.40;;;16.50;99.50;;;;;;5026096;28;20044;-75
2022/05/26 07:21:35;;;;;;;2.45;1.40;;;16.50;99.40;;;;;;5017325;28;20045;-75
2022/05/26 07:24:01;;;;;;;3.92;1.40;;;16.60;99.90;;;;;;5024613;28;20033;-75
2022/05/26 07:26:32;;;;;;;1.58;1.05;;;16.50;98.50;;;;;;5022761;28;20103;-77
2022/05/26 07:29:01;;;;;;;3.53;1.40;;;16.50;98.50;;;;;;5021873;28;20025;-76
2022/05/26 07:31:27;;;;;;;1.30;1.20;;;16.60;97.20;;;;;;5023435;28;20132;-76
2022/05/26 07:33:53;;;;;;;2.20;1.27;;;16.70;97.70;;;;;;5022737;28;20043;-77
2022/05/26 07:41:53;;;;;;;1.30;1.20;;;16.90;94.70;;;;;;5021443;28;20040;-77
2022/05/26 07:44:19;;;;;;;1.88;1.20;;;17.30;98.30;;;;;;5022808;28;20041;-76
2022/05/26 07:46:44;;;;;;;2.00;1.10;;;17.50;95.30;;;;;;5025381;28;20087;-76
2022/05/26 07:49:12;;;;;;;2.13;1.00;;;17.60;95.00;;;;;;5021917;28;20106;-76
2022/05/26 07:51:37;;;;;;;1.02;0.82;;;17.50;93.30;;;;;;5022585;28;20025;-76
2022/05/26 07:54:03;;;;;;;1.27;0.82;;;17.60;91.70;;;;;;5026096;28;20042;-76
2022/05/26 07:56:33;;;;;;;1.08;1.08;;;17.40;95.10;;;;;;5023918;28;20083;-76
2022/05/26 07:58:58;;;;;;;1.75;1.10;;;17.30;93.80;;;;;;5023402;28;20038;-76
2022/05/26 08:01:24;;;;;;;1.67;1.13;;;17.40;95.10;;;;;;5021903;28;20041;-75
2022/05/26 08:03:53;;;;;;;0.95;0.90;;;17.50;94.20;;;;;;5022828;28;20090;-76
2022/05/26 08:06:19;;;;;;;1.15;1.05;;;17.50;94.00;;;;;;5022444;28;20033;-76
2022/05/26 08:08:45;;;;;;;1.23;0.88;;;17.60;91.00;;;;;;5028235;28;20534;-76
2022/05/26 08:11:11;;;;;;;0.73;0.73;;;17.50;87.60;;;;;;5022055;28;20045;-76
2022/05/26 08:13:36;;;;;;;1.08;0.90;;;17.40;92.10;;;;;;5021578;28;20033;-76
2022/05/26 08:16:05;;;;;;;0.90;0.90;;;17.30;93.40;;;;;;5020501;28;20037;-76
2022/05/26 08:18:32;;;;;;;0.82;0.82;;;17.70;92.90;;;;;;5005098;28;20780;-76
2022/05/26 08:21:08;;;;;;;0.90;0.90;;;17.90;87.60;;;;;;5020239;28;20427;-76
2022/05/26 08:23:34;;;;;;;1.95;0.75;;;17.90;91.70;;;;;;5022412;28;20087;-76
2022/05/26 08:26:00;;;;;;;0.93;0.75;;;17.70;85.90;;;;;;5020077;28;20399;-76
2022/05/26 08:28:25;;;;;;;1.05;0.93;;;17.50;90.60;;;;;;5022454;28;20033;-76
2022/05/26 08:30:51;;;;;;;0.95;0.90;;;17.90;92.80;;;;;;5024675;28;21484;-76
2022/05/26 08:33:16;;;;;;;0.70;0.70;;;18.30;80.80;;;;;;5024353;28;20036;-76
2022/05/26 08:35:42;;;;;;;2.05;0.80;;;18.10;74.40;;;;;;5021967;28;20485;-76
2022/05/26 08:38:08;;;;;;;2.55;0.90;;;18.10;82.80;;;;;;5023560;28;20044;-76
2022/05/26 08:40:41;;;;;;;1.08;0.90;;;18.40;90.90;;;;;;5025323;28;20034;-76
2022/05/26 08:43:24;;;;;;;1.25;0.60;;;18.70;92.90;;;;;;5023314;28;20125;-76
2022/05/26 08:45:52;;;;;;;0.70;0.70;;;19.00;75.20;;;;;;5023379;28;20037;-76
2022/05/26 08:48:44;;;;;;;2.92;0.90;;;18.70;70.50;;;;;;5007434;28;20037;-76
2022/05/26 08:51:15;;;;;;;0.82;0.70;;;18.80;78.70;;;;;;5022578;28;20534;-77
2022/05/26 08:53:42;;;;;;;0.73;0.73;;;19.00;74.00;;;;;;5027375;28;20071;-77
2022/05/26 08:56:11;;;;;;;0.82;0.82;;;19.10;76.50;;;;;;5030878;28;20065;-77
2022/05/26 08:58:45;;;;;;;1.25;0.60;;;19.40;78.70;;;;;;5026840;28;20083;-76
2022/05/26 09:01:16;;;;;;;1.55;0.68;;;19.30;66.00;;;;;;5022471;28;20074;-76
2022/05/26 09:03:42;;;;;;;1.10;1.00;;;19.80;74.10;;;;;;5029300;28;20885;-76
2022/05/26 09:06:14;;;;;;;0.75;0.70;;;19.90;68.00;;;;;;5025452;28;20031;-77
2022/05/26 09:14:39;;;;;;;1.35;0.68;;;18.20;67.30;;;;;;5025728;28;20053;-77
2022/05/26 09:17:11;;;;;;;1.75;0.70;;;18.40;69.70;;;;;;5024279;28;20037;-76
2022/05/26 09:19:42;;;;;;;0.80;0.57;;;18.50;68.10;;;;;;5024685;28;20025;-76
2022/05/26 09:22:29;;;;;;;0.57;0.55;;;18.40;67.20;;;;;;5022959;28;22003;-76
2022/05/26 09:24:56;;;;;;;0.68;0.68;;;18.20;65.50;;;;;;5022990;28;20029;-76
2022/05/26 09:27:27;;;;;;;0.80;0.77;;;18.00;67.20;;;;;;5025505;28;20037;-77
2022/05/26 09:29:53;;;;;;;0.63;0.50;;;18.10;66.80;;;;;;5023508;28;20590;-76
2022/05/26 09:32:28;;;;;;;0.30;0.30;;;18.30;71.60;;;;;;5022141;28;20045;-76
2022/05/26 09:35:25;;;;;;;1.15;0.57;;;18.50;70.00;;;;;;5022377;28;20037;-75
2022/05/26 09:37:53;;;;;;;1.90;0.70;;;19.10;66.50;;;;;;5005105;28;20172;-76
2022/05/26 09:40:46;;;;;;;2.00;0.47;;;19.00;61.60;;;;;;5025526;28;20037;-76
2022/05/26 09:43:21;;;;;;;0.45;0.45;;;18.70;64.50;;;;;;5022315;28;20122;-75
2022/05/26 09:45:50;;;;;;;0.30;0.30;;;18.20;61.70;;;;;;5026140;28;20053;-76
2022/05/26 09:48:24;;;;;;;1.77;0.70;;;18.30;64.80;;;;;;5026065;28;22128;-76
2022/05/26 09:51:11;;;;;;;1.98;0.80;;;18.20;63.10;;;;;;5025270;28;20030;-76
2022/05/26 09:53:40;;;;;;;1.00;0.50;;;18.50;73.30;;;;;;5025379;28;20037;-76
2022/05/26 09:56:07;;;;;;;0.63;0.50;;;18.50;66.90;;;;;;5024785;28;20107;-76
2022/05/26 09:58:39;;;;;;;0.60;0.60;;;18.60;65.60;;;;;;5027716;28;20029;-75
2022/05/26 10:01:23;;;;;;;0.85;0.60;;;19.00;70.00;;;;;;5011578;28;20034;-77
2022/05/26 10:04:07;;;;;;;1.02;0.70;;;19.50;66.80;;;;;;5025552;28;20033;-77
2022/05/26 10:06:42;;;;;;;2.60;0.77;;;19.60;64.70;;;;;;5025055;28;20030;-78
2022/05/26 10:09:25;;;;;;;0.60;0.60;;;19.90;65.30;;;;;;5024369;28;20056;-79
2022/05/26 10:12:28;;;;;;;1.63;0.70;;;20.10;63.00;;;;;;5026995;28;20050;-80
2022/05/26 10:15:16;;;;;;;2.03;0.60;;;20.50;67.20;;;;;;5030702;28;20147;-80
2022/05/26 10:17:48;;;;;;;;;;;20.70;62.60;;;;;;5028650;28;20060;-82
2022/05/26 10:20:34;;;;;;;0.50;0.50;;;20.40;59.30;;;;;;5031363;28;19913;-79
2022/05/26 10:23:02;;;;;;;1.23;0.70;;;20.50;65.30;;;;;;5027132;28;20045;-80
2022/05/26 10:25:43;;;;;;;0.68;0.63;;;20.20;64.10;;;;;;5012535;28;20060;-80
2022/05/26 10:28:24;;;;;;;0.70;0.68;;;20.20;58.50;;;;;;5029319;28;20029;-80
2022/05/26 10:31:08;;;;;;;1.05;0.70;;;19.90;69.80;;;;;;5010423;28;20115;-79
2022/05/26 10:34:01;;;;;;;2.67;0.80;;;20.10;66.80;;;;;;5028575;28;20040;-80
2022/05/26 10:37:11;;;;;;;0.70;0.70;;;20.60;62.60;;;;;;5028703;28;20037;-81
2022/05/26 10:39:37;;;;;;;1.33;0.70;;;20.60;68.10;;;;;;5033593;28;20108;-80
2022/05/26 10:42:05;;;;;;;2.63;0.63;;;20.20;67.10;;;;;;5025661;28;20033;-80
2022/05/26 10:44:50;;;;;;;0.40;0.40;;;19.90;57.20;;;;;;5024934;28;20033;-80
2022/05/26 10:47:21;;;;;;;0.85;0.70;;;19.20;61.50;;;;;;5027467;28;20052;-80
2022/05/26 10:49:53;;;;;;;0.70;0.70;;;19.00;63.40;;;;;;5031714;28;20060;-79
2022/05/26 10:52:29;;;;;;;0.85;0.80;;;19.00;66.20;;;;;;5028978;28;20026;-79
2022/05/26 10:55:03;;;;;;;0.57;0.57;;;19.30;68.80;;;;;;5028093;28;20030;-80
2022/05/26 10:57:42;;;;;;;0.70;0.70;;;19.30;67.80;;;;;;5007746;28;20388;-78
2022/05/26 11:00:19;;;;;;;1.05;0.80;;;19.20;66.80;;;;;;5029164;28;20041;-80
2022/05/26 11:03:13;;;;;;;0.60;0.60;;;19.60;78.20;;;;;;5008222;28;20069;-80
2022/05/26 11:05:47;;;;;;;0.80;0.80;;;19.40;61.50;;;;;;5028842;28;20025;-77
2022/05/26 11:08:37;;;;;;;1.63;0.80;;;19.10;60.90;;;;;;5027638;28;20485;-80
2022/05/26 11:11:06;;;;;;;2.50;0.70;;;19.30;60.10;;;;;;5027924;28;20041;-79
2022/05/26 11:13:36;;;;;;;0.80;0.75;;;19.70;61.10;;;;;;5026754;28;20057;-80
2022/05/26 11:19:20;;;;;;;7.93;7.00;;;19.80;61.50;;;;;;5028212;28;20389;-81
2022/05/26 11:21:46;;;;;;;2.05;0.70;;;20.10;64.20;;;;;;5026869;28;20504;-81
2022/05/26 11:24:12;;;;;;;1.75;0.75;;;20.30;64.00;;;;;;5027562;28;20037;-81
2022/05/26 11:26:45;;;;;;;0.57;0.57;;;19.90;55.90;;;;;;5030256;28;20045;-81
2022/05/26 11:29:13;;;;;;;3.30;0.85;;;19.80;59.80;;;;;;5030598;28;20037;-81
2022/05/26 11:37:41;;;;;;;0.95;0.50;;;20.20;61.40;;;;;;5026779;28;20048;-79
2022/05/26 11:40:11;;;;;;;0.50;0.50;;;20.00;62.20;;;;;;5031663;28;20396;-79
2022/05/26 11:42:39;;;;;;;0.52;0.50;;;19.90;62.30;;;;;;4996487;28;20180;-79
2022/05/26 11:45:08;;;;;;;;;;;19.80;61.10;;;;;;5009894;28;20045;-79
2022/05/26 11:47:46;;;;;;;1.20;1.10;;;19.80;58.70;;;;;;5027897;28;19921;-79
2022/05/26 11:50:23;;;;;;;1.88;0.80;;;20.00;65.10;;;;;;5029871;28;20535;-79
2022/05/26 11:52:51;;;;;;;2.42;0.60;;;19.80;60.90;;;;;;5027109;28;20036;-79
2022/05/26 11:55:25;;;;;;;0.70;0.52;;;19.60;59.20;;;;;;5026932;28;20026;-80
2022/05/26 11:57:56;;;;;;;2.28;0.60;;;19.40;57.00;;;;;;5006212;28;20110;-79
2022/05/26 12:00:40;;;;;;;1.00;0.90;;;19.30;63.90;;;;;;5007265;28;20025;-80
2022/05/26 12:03:24;;;;;;;2.10;0.63;;;19.30;62.50;;;;;;5021774;28;20037;-80
2022/05/26 12:05:57;;;;;;;2.38;0.70;;;19.30;62.60;;;;;;5023020;28;20040;-79
2022/05/26 12:08:33;;;;;;;0.60;0.60;;;19.40;66.00;;;;;;5022768;28;20037;-79
2022/05/26 12:11:03;;;;;;;1.75;0.55;;;19.30;64.00;;;;;;5026818;28;20052;-80
2022/05/26 12:13:32;;;;;;;1.48;0.40;;;19.30;64.90;;;;;;5025416;28;20029;-80
2022/05/26 12:16:19;;;;;;;1.02;0.60;;;19.30;68.20;;;;;;5005566;28;20021;-79
2022/05/26 12:18:50;;;;;;;0.60;0.60;;;19.30;66.90;;;;;;5025428;28;20532;-79
2022/05/26 12:21:17;;;;;;;1.50;0.70;;;19.30;70.80;;;;;;5024798;28;20029;-79
2022/05/26 12:23:43;;;;;;;0.50;0.50;;;19.40;75.50;;;;;;5024587;28;20559;-79
2022/05/26 12:26:51;;;;;;;1.08;0.70;;;19.40;71.70;;;;;;5006455;28;20041;-79
2022/05/26 12:29:43;;;;;;;0.60;0.60;;;19.40;72.90;;;;;;4976894;28;20519;-80
2022/05/26 12:32:21;;;;;;;0.70;0.70;;;19.50;74.70;;;;;;5024424;28;20054;-80
2022/05/26 12:35:05;;;;;;;0.50;0.50;;;19.50;72.30;;;;;;5022518;28;20135;-81
2022/05/26 12:37:37;;;;;;;0.40;0.38;;;19.40;69.50;;;;;;5024026;28;20033;-80
2022/05/26 12:40:12;;;;;;;1.42;0.50;;;19.40;70.00;;;;;;5023024;28;20033;-80
2022/05/26 12:43:08;;;;;;;2.40;0.63;;;19.40;72.20;;;;;;5023988;28;20373;-80
2022/05/26 12:45:43;;;;;;;0.75;0.75;;;19.40;65.90;;;;;;5024608;28;20051;-80
2022/05/26 12:48:34;;;;;;;0.60;0.60;;;19.50;68.70;;;;;;5023046;28;20041;-79
2022/05/26 12:51:09;;;;;;;0.50;0.50;;;19.40;68.70;;;;;;5024242;28;20116;-79
2022/05/26 12:53:39;;;;;;;0.95;0.70;;;19.50;66.50;;;;;;5029465;28;20032;-80
2022/05/26 12:56:21;;;;;;;1.75;0.60;;;19.40;61.80;;;;;;5022781;28;20413;-79
2022/05/26 12:58:50;;;;;;;0.75;0.43;;;19.40;62.90;;;;;;5024092;28;20120;-80
2022/05/26 13:01:20;;;;;;;0.57;0.55;;;19.40;62.20;;;;;;5020801;28;20447;-80
2022/05/26 13:03:56;;;;;;;3.00;0.70;;;19.40;64.80;;;;;;5024254;28;20080;-81
2022/05/26 13:06:21;;;;;;;1.45;0.40;;;19.40;65.00;;;;;;5024654;28;20037;-80
2022/05/26 13:08:53;;;;;;;1.65;0.60;;;19.40;66.60;;;;;;5021570;28;20493;-80
2022/05/26 13:11:27;;;;;;;0.95;0.60;;;19.40;74.40;;;;;;5022726;28;20087;-79
2022/05/26 13:13:56;;;;;;;1.10;0.70;;;19.60;74.60;;;;;;5024545;28;20044;-80
2022/05/26 13:16:31;;;;;;;1.27;0.47;;;19.80;69.50;;;;;;5026208;28;20056;-80
2022/05/26 13:19:09;;;;;;;0.43;0.43;;;19.80;64.30;;;;;;5022195;28;20048;-80
2022/05/26 13:21:35;;;;;;;1.23;0.60;;;19.90;69.30;;;;;;5026743;28;20052;-80
2022/05/26 13:24:01;;;;;;;0.60;0.55;;;19.90;65.40;;;;;;5026805;28;20362;-81
2022/05/26 13:26:27;;;;;;;0.75;0.75;;;19.80;65.50;;;;;;5012277;28;20044;-80
2022/05/26 13:28:56;;;;;;;1.63;0.70;;;19.70;69.10;;;;;;5027479;28;20480;-80
2022/05/26 13:34:11;;;;;;;0.77;0.70;;;19.90;66.40;;;;;;5023427;28;20158;-80
2022/05/26 13:36:43;;;;;;;0.50;0.50;;;20.00;69.00;;;;;;5026735;28;20036;-80
2022/05/26 13:39:14;;;;;;;1.00;0.65;;;19.90;64.10;;;;;;5029085;28;20120;-80
2022/05/26 13:41:42;;;;;;;0.50;0.50;;;19.70;67.40;;;;;;5027996;28;20616;-80
2022/05/26 13:44:13;;;;;;;0.70;0.70;;;19.60;65.70;;;;;;5026005;28;20044;-80
2022/05/26 13:46:45;;;;;;;0.65;0.65;;;19.60;73.50;;;;;;5020695;28;20131;-78
2022/05/26 13:49:29;;;;;;;0.60;0.60;;;19.60;71.60;;;;;;5031135;28;20112;-78
2022/05/26 13:51:55;;;;;;;1.33;0.68;;;19.50;72.10;;;;;;5027231;28;20117;-78
2022/05/26 13:54:29;;;;;;;0.65;0.65;;;19.50;68.40;;;;;;5023384;28;20076;-78